Skip Navigation Linkwww.weather.gov 
NOAA logo - Select to go to the NOAA homepage National Weather Service
 Headquarters Office   NWS logo
NWS Office of the Chief Information Officer/Telecommunication Operations Center
 
   

Current Weather Conditions:
Zamboanga, Philippines

(RPMZ) 06-54N 122-04E 6M

Conditions at

2024.02.25 2100 UTC
Wind from the E (080 degrees) at 3 MPH (3 KT) (direction variable)
Visibility greater than 7 mile(s)
Sky conditions mostly cloudy
Weather Cumulonimbus clouds observed
Temperature 77 F (25 C)
Dew Point 75 F (24 C)
Relative Humidity 94%
Pressure (altimeter) 29.85 in. Hg (1011 hPa)
ob RPMZ 252100Z 08003KT 050V110 9999 FEW016CB BKN090 25/24 Q1011 RMK A2985 CB E-SE/SW-W/OHD METAR RPLC 252100Z 27004KT 9999 FEW020 24/20 Q1015 NOSIG RMK A2997

24 Hour Summary

Time
EST (UTC)
Temperature
F (C)
Dew Point
F (C)
Pressure
Inches (hPa)
Wind
MPH
Weather
Latest 4 PM (21) Feb 25 77 (25) 75 (24) 29.85 (1011) E 3
3 PM (20) No Data
2 PM (19) No Data
1 PM (18) Feb 25 78 (26) 73 (23) 29.85 (1011) Variable 2
Noon (17) No Data
11 AM (16) No Data
10 AM (15) Feb 25 78 (26) 73 (23) 29.88 (1012) Variable 1
9 AM (14) No Data
8 AM (13) No Data
7 AM (12) Feb 25 80 (27) 75 (24) 29.83 (1010) Variable 2
6 AM (11) No Data
5 AM (10) Feb 25 82 (28) 75 (24) 29.83 (1010) W 13
4 AM (9) Feb 25 86 (30) 75 (24) 29.80 (1009) WSW 8
3 AM (8) Feb 25 86 (30) 75 (24) 29.80 (1009) WSW 7
2 AM (7) Feb 25 87 (31) 75 (24) 29.80 (1009) E 7
1 AM (6) Feb 25 91 (33) 75 (24) 29.80 (1009) E 8
Midnight (5) Feb 25 91 (33) 71 (22) 29.83 (1010) ESE 10
11 PM (4) Feb 24 89 (32) 77 (25) 29.85 (1011) E 13
10 PM (3) Feb 24 89 (32) 77 (25) 29.85 (1011) E 9
9 PM (2) Feb 24 87 (31) 75 (24) 29.88 (1012) E 8
8 PM (1) Feb 24 86 (30) 77 (25) 29.88 (1012) E 10
7 PM (0) Feb 24 84 (29) 75 (24) 29.88 (1012) E 5
6 PM (23) Feb 24 78 (26) 75 (24) 29.88 (1012) Calm
Oldest 5 PM (22) Feb 24 75 (24) 75 (24) 29.85 (1011) Variable 2
Time
EST (UTC)
Temperature
F(C)
Dew Point
F(C)
Pressure
Inches(hPa)
Wind
(MPH)
Weather

The information presented here is taken from products produced by the U.S. National Weather Service and other national and international agencies




US Dept of Commerce
National Oceanic and Atmospheric Administration
National Weather Service
1325 East West Highway
Silver Spring, MD 20910
Page Author: NWS Internet Services Team
Disclaimer
Feedback
Privacy Notice
Credits